KAZO/AZO METAR and TAF weather

Enter ICAO airport designator
Station Type Date Time Source
KAZO METAR 2020/01/23 08:53 UTC NOAA

KAZO 230853Z AUTO 10SM CLR M01/M07 A3014 RMK AO2 SLP218 T10061072 56007


Station Type Date Time Source
KAZO Decoded METAR 2020/01/23 08:53 UTC NOAA

KALAMAZOO/BATTLE CREEK AIRPORT, MI, United States (KAZO) 42-14N 085-33W 272M
Jan 23, 2020 - 03:53 AM EST / 2020.01.23 0853 UTC
Visibility: 10 mile(s):0
Sky conditions: clear
Temperature: 30.9 F (-0.6 C)
Dew Point: 19.0 F (-7.2 C)
Relative Humidity: 60%
Pressure (altimeter): 30.14 in. Hg (1020 hPa)
Pressure tendency: 0.02 inches (0.7 hPa) lower than three hours ago
ob: KAZO 230853Z AUTO 10SM CLR M01/M07 A3014 RMK AO2 SLP218 T10061072 56007
cycle: 9

Station Type Date Time Source
KAZO TAF 2020/01/23 06:48 UTC NOAA

TAF KAZO 230545Z 2306/2406 17008KT P6SM OVC100
FM231000 17005KT P6SM VCSH BKN050
FM231600 17006KT 3SM -SHSN OVC020
FM231900 15008KT 2SM -SN OVC012
FM240100 14007KT 5SM -SHSN BR BKN025

Example: see airport list